createdAt,value
2019-03-09T00:01:34.275Z,5.60
2019-03-09T00:04:05.011Z,5.60
2019-03-09T00:06:35.609Z,5.60
2019-03-09T00:09:08.487Z,5.50
2019-03-09T00:11:39.039Z,5.50
2019-03-09T00:14:09.687Z,5.60
2019-03-09T00:16:40.846Z,5.60
2019-03-09T00:19:11.465Z,5.50
2019-03-09T00:21:42.030Z,5.50
2019-03-09T00:24:37.832Z,5.60
2019-03-09T00:27:14.500Z,5.70
2019-03-09T00:30:04.320Z,5.70
2019-03-09T00:32:35.206Z,5.90
2019-03-09T00:35:05.923Z,5.80
2019-03-09T00:37:36.455Z,6.00
2019-03-09T00:40:08.235Z,5.90
2019-03-09T00:42:39.297Z,6.10
2019-03-09T00:45:10.195Z,6.10
2019-03-09T00:47:40.744Z,6.10
2019-03-09T00:50:11.999Z,6.10
2019-03-09T00:52:42.632Z,6.20
2019-03-09T00:55:14.013Z,6.20
2019-03-09T00:57:45.537Z,6.20
2019-03-09T01:00:19.633Z,6.20
2019-03-09T01:02:51.193Z,6.20
2019-03-09T01:05:21.995Z,6.10
2019-03-09T01:07:52.559Z,6.20
2019-03-09T01:10:23.447Z,6.10
2019-03-09T01:12:53.993Z,6.20
2019-03-09T01:15:24.561Z,6.20
2019-03-09T01:17:55.210Z,6.30
2019-03-09T01:20:26.608Z,6.20
2019-03-09T01:22:57.168Z,6.30
2019-03-09T01:25:27.862Z,6.20
2019-03-09T01:27:58.409Z,6.30
2019-03-09T01:30:29.030Z,6.40
2019-03-09T01:32:59.631Z,6.40
2019-03-09T01:35:30.193Z,6.50
2019-03-09T01:38:00.792Z,6.50
2019-03-09T01:40:31.358Z,6.50
2019-03-09T01:43:02.265Z,6.60
2019-03-09T01:45:33.223Z,6.60
2019-03-09T01:48:03.865Z,6.60
2019-03-09T01:50:34.412Z,6.70
2019-03-09T01:53:05.365Z,6.70
2019-03-09T01:55:35.907Z,6.70
2019-03-09T01:58:06.555Z,6.70
2019-03-09T02:00:37.108Z,6.70
2019-03-09T02:03:07.721Z,6.60
2019-03-09T02:05:38.593Z,6.60
2019-03-09T02:08:09.198Z,6.60
2019-03-09T02:10:39.840Z,6.60
2019-03-09T02:13:10.506Z,6.60
2019-03-09T02:15:41.429Z,6.60
2019-03-09T02:18:12.030Z,6.70
2019-03-09T02:20:42.573Z,6.80
2019-03-09T02:23:13.220Z,6.70
2019-03-09T02:25:44.058Z,6.70
2019-03-09T02:28:14.660Z,6.70
2019-03-09T02:30:45.269Z,6.90
2019-03-09T02:33:16.127Z,6.80
2019-03-09T02:35:46.739Z,6.90
2019-03-09T02:38:30.717Z,7.00
2019-03-09T02:41:01.252Z,6.90
2019-03-09T02:43:31.716Z,7.00
2019-03-09T02:46:02.466Z,7.00
2019-03-09T02:48:33.033Z,7.00
2019-03-09T02:51:03.586Z,7.00
2019-03-09T02:53:34.179Z,7.00
2019-03-09T02:56:04.713Z,7.00
2019-03-09T02:58:35.293Z,7.10
2019-03-09T03:01:20.699Z,7.00
2019-03-09T03:03:51.652Z,7.00
2019-03-09T03:06:22.369Z,7.00
2019-03-09T03:08:53.290Z,6.90
2019-03-09T03:11:23.827Z,7.00
2019-03-09T03:13:54.875Z,6.90
2019-03-09T03:16:25.438Z,6.90
2019-03-09T03:18:56.021Z,6.90
2019-03-09T03:21:26.767Z,6.90
2019-03-09T03:23:57.337Z,6.90
2019-03-09T03:26:28.144Z,6.90
2019-03-09T03:28:59.035Z,6.90
2019-03-09T03:31:29.814Z,6.90
2019-03-09T03:34:00.555Z,7.00
2019-03-09T03:36:31.141Z,7.10
2019-03-09T03:39:01.854Z,7.10
2019-03-09T03:41:32.620Z,7.00
2019-03-09T03:44:03.477Z,7.00
2019-03-09T03:46:34.021Z,7.00
2019-03-09T03:49:05.063Z,7.00
2019-03-09T03:51:35.646Z,7.00
2019-03-09T03:54:06.425Z,7.00
2019-03-09T03:56:36.970Z,7.00
2019-03-09T03:59:07.667Z,7.00
2019-03-09T04:01:38.229Z,7.00
2019-03-09T04:04:09.237Z,7.00
2019-03-09T04:06:40.296Z,7.00
2019-03-09T04:09:11.354Z,7.00
2019-03-09T04:11:42.075Z,6.90
2019-03-09T04:14:13.099Z,6.70
2019-03-09T04:19:11.261Z,6.70
2019-03-09T04:21:42.569Z,6.20
2019-03-09T04:24:13.619Z,6.30
2019-03-09T04:26:44.195Z,6.40
2019-03-09T04:29:15.215Z,6.40
2019-03-09T04:31:45.801Z,6.60
2019-03-09T04:34:16.721Z,6.60
2019-03-09T04:36:47.283Z,6.40
2019-03-09T04:39:17.981Z,6.60
2019-03-09T04:41:54.187Z,6.60
2019-03-09T04:44:27.077Z,6.50
2019-03-09T04:46:57.585Z,6.50
2019-03-09T04:49:28.159Z,6.50
2019-03-09T04:51:58.935Z,6.40
2019-03-09T04:54:29.513Z,6.20
2019-03-09T04:57:00.293Z,6.00
2019-03-09T04:59:31.582Z,6.00
2019-03-09T05:02:02.274Z,6.30
2019-03-09T05:05:01.035Z,6.40
2019-03-09T05:07:47.282Z,6.50
2019-03-09T05:10:48.861Z,6.50
2019-03-09T05:14:08.340Z,6.20
2019-03-09T05:16:38.921Z,6.10
2019-03-09T05:19:09.507Z,6.00
2019-03-09T05:21:40.633Z,5.90
2019-03-09T05:24:11.226Z,5.90
2019-03-09T05:26:44.955Z,5.50
2019-03-09T05:29:15.653Z,5.50
2019-03-09T05:31:46.522Z,5.50
2019-03-09T05:34:17.488Z,5.50
2019-03-09T05:36:48.060Z,5.60
2019-03-09T05:39:19.205Z,5.60
2019-03-09T05:41:49.782Z,5.50
2019-03-09T05:44:20.716Z,5.50
2019-03-09T05:46:51.410Z,5.50
2019-03-09T05:49:21.973Z,5.60
2019-03-09T05:52:32.600Z,5.50
2019-03-09T05:55:16.497Z,5.60
2019-03-09T05:57:47.468Z,5.50
2019-03-09T06:00:18.851Z,5.50
2019-03-09T06:02:49.715Z,5.50
2019-03-09T06:05:44.618Z,5.50
2019-03-09T06:08:15.278Z,5.70
2019-03-09T06:10:46.039Z,5.80
2019-03-09T06:13:16.925Z,5.70
2019-03-09T06:15:47.692Z,5.70
2019-03-09T06:18:18.449Z,5.70
2019-03-09T06:20:49.317Z,5.80
2019-03-09T06:23:20.022Z,5.80
2019-03-09T06:25:50.589Z,5.80
2019-03-09T06:28:22.137Z,5.80
2019-03-09T06:30:52.730Z,5.80
2019-03-09T06:33:34.888Z,5.80
2019-03-09T06:36:53.960Z,5.90
2019-03-09T06:39:47.436Z,5.90
2019-03-09T06:42:35.232Z,5.80
2019-03-09T06:45:07.616Z,5.80
2019-03-09T06:47:38.186Z,5.80
2019-03-09T06:50:11.075Z,5.90
2019-03-09T06:52:42.079Z,5.80
2019-03-09T06:55:13.488Z,5.90
2019-03-09T06:57:44.191Z,5.90
2019-03-09T07:00:38.841Z,6.00
2019-03-09T07:03:10.250Z,6.00
2019-03-09T07:05:40.824Z,6.10
2019-03-09T07:08:12.060Z,6.10
2019-03-09T07:10:42.632Z,6.20
2019-03-09T07:13:13.296Z,6.20
2019-03-09T07:15:46.206Z,6.30
2019-03-09T07:18:26.266Z,6.40
2019-03-09T07:20:56.852Z,6.40
2019-03-09T07:23:27.440Z,6.50
2019-03-09T07:25:58.225Z,6.50
2019-03-09T07:28:28.807Z,6.60
2019-03-09T07:30:59.566Z,6.60
2019-03-09T07:33:30.126Z,6.70
2019-03-09T07:36:01.219Z,6.60
2019-03-09T07:38:31.798Z,6.60
2019-03-09T07:41:02.515Z,6.70
2019-03-09T07:43:33.381Z,6.70
2019-03-09T07:46:04.075Z,6.80
2019-03-09T07:48:34.640Z,6.80
2019-03-09T07:51:05.352Z,6.80
2019-03-09T07:53:35.913Z,6.80
2019-03-09T07:56:06.633Z,6.90
2019-03-09T07:58:37.254Z,6.90
2019-03-09T08:01:08.307Z,7.00
2019-03-09T08:03:39.324Z,7.00
2019-03-09T08:06:10.176Z,7.00
2019-03-09T08:08:40.774Z,7.00
2019-03-09T08:11:11.551Z,7.00
2019-03-09T08:13:42.386Z,7.10
2019-03-09T08:16:13.425Z,6.90
2019-03-09T08:18:45.339Z,6.80
2019-03-09T08:21:16.060Z,6.80
2019-03-09T08:23:47.622Z,6.90
2019-03-09T08:26:18.202Z,7.00
2019-03-09T08:28:48.962Z,7.20
2019-03-09T08:31:19.921Z,7.40
2019-03-09T08:33:50.811Z,7.50
2019-03-09T08:36:21.406Z,7.40
2019-03-09T08:38:52.287Z,7.70
2019-03-09T08:41:23.212Z,7.80
2019-03-09T08:43:53.940Z,7.80
2019-03-09T08:46:24.833Z,7.80
2019-03-09T08:48:55.481Z,7.90
2019-03-09T08:51:26.051Z,7.90
2019-03-09T08:53:56.750Z,8.00
2019-03-09T08:56:27.316Z,8.10
2019-03-09T08:58:58.592Z,8.30
2019-03-09T09:01:29.533Z,8.30
2019-03-09T09:04:00.182Z,8.30
2019-03-09T09:06:31.418Z,8.60
2019-03-09T09:09:02.223Z,8.80
2019-03-09T09:11:32.811Z,8.80
2019-03-09T09:14:03.549Z,8.90
2019-03-09T09:16:34.119Z,9.20
2019-03-09T09:19:05.269Z,9.10
2019-03-09T09:21:35.976Z,9.20
2019-03-09T09:24:06.597Z,9.10
2019-03-09T09:26:37.192Z,9.30
2019-03-09T09:29:08.130Z,9.20
2019-03-09T09:31:38.874Z,9.30
2019-03-09T09:34:09.460Z,9.40
2019-03-09T09:36:40.167Z,9.50
2019-03-09T09:39:11.105Z,9.40
2019-03-09T09:41:41.818Z,9.40
2019-03-09T09:44:12.727Z,9.40
2019-03-09T09:46:43.476Z,9.30
2019-03-09T09:49:14.193Z,9.20
2019-03-09T09:51:44.768Z,9.20
2019-03-09T09:54:15.334Z,9.10
2019-03-09T09:56:46.101Z,9.20
2019-03-09T09:59:16.709Z,9.10
2019-03-09T10:01:47.808Z,9.20
2019-03-09T10:04:18.414Z,9.20
2019-03-09T10:06:49.144Z,9.10
2019-03-09T10:09:20.025Z,9.20
2019-03-09T10:11:50.995Z,9.30
2019-03-09T10:14:21.951Z,9.40
2019-03-09T10:16:53.226Z,9.40
2019-03-09T10:19:23.784Z,9.40
2019-03-09T10:21:54.373Z,9.50
2019-03-09T10:24:25.107Z,9.50
2019-03-09T10:26:56.011Z,9.50
2019-03-09T10:29:27.416Z,9.50
2019-03-09T10:31:58.005Z,9.50
2019-03-09T10:34:28.773Z,9.50
2019-03-09T10:37:00.033Z,9.50
2019-03-09T10:39:30.735Z,9.40
2019-03-09T10:42:01.453Z,9.40
2019-03-09T10:44:33.139Z,9.40
2019-03-09T10:47:03.718Z,9.40
2019-03-09T10:49:34.485Z,9.40
2019-03-09T10:52:05.188Z,9.40
2019-03-09T10:54:36.391Z,9.50
2019-03-09T10:57:07.843Z,9.60
2019-03-09T10:59:38.461Z,9.70
2019-03-09T11:02:09.251Z,9.70
2019-03-09T11:04:40.124Z,9.70
2019-03-09T11:07:10.722Z,9.70
2019-03-09T11:09:41.383Z,9.70
2019-03-09T11:12:11.964Z,9.80
2019-03-09T11:14:42.933Z,9.90
2019-03-09T11:17:13.518Z,9.80
2019-03-09T11:19:44.186Z,9.80
2019-03-09T11:22:14.783Z,9.80
2019-03-09T11:24:45.360Z,9.80
2019-03-09T11:27:16.107Z,9.70
2019-03-09T11:29:46.684Z,9.50
2019-03-09T11:32:18.018Z,9.60
2019-03-09T11:34:48.953Z,9.60
2019-03-09T11:37:19.651Z,9.70
2019-03-09T11:39:50.238Z,9.80
2019-03-09T11:42:20.908Z,9.80
2019-03-09T11:44:51.774Z,9.90
2019-03-09T11:47:22.467Z,9.90
2019-03-09T11:49:53.044Z,10.00
2019-03-09T11:52:23.733Z,10.00
2019-03-09T11:54:54.617Z,9.90
2019-03-09T11:57:25.418Z,10.00
2019-03-09T11:59:56.467Z,10.10
2019-03-09T12:02:27.211Z,10.10
2019-03-09T12:04:58.069Z,10.10
2019-03-09T12:07:28.760Z,10.20
2019-03-09T12:09:59.716Z,10.20
2019-03-09T12:12:30.551Z,10.20
2019-03-09T12:15:01.112Z,10.00
2019-03-09T12:17:31.791Z,10.00
2019-03-09T12:20:02.353Z,9.90
2019-03-09T12:22:33.041Z,9.90
2019-03-09T12:25:03.674Z,9.90
2019-03-09T12:27:34.431Z,10.00
2019-03-09T12:30:05.287Z,10.00
2019-03-09T12:32:36.050Z,10.00
2019-03-09T12:35:06.945Z,10.00
2019-03-09T12:37:37.678Z,10.00
2019-03-09T12:40:10.902Z,10.00
2019-03-09T12:42:41.492Z,9.90
2019-03-09T12:45:12.696Z,9.90
2019-03-09T12:47:43.243Z,9.90
2019-03-09T12:50:16.554Z,9.80
2019-03-09T12:52:47.622Z,9.90
2019-03-09T12:55:18.196Z,9.80
2019-03-09T12:57:49.125Z,9.90
2019-03-09T13:00:20.571Z,9.90
2019-03-09T13:02:51.578Z,9.80
2019-03-09T13:05:22.262Z,9.80
2019-03-09T13:07:53.014Z,9.80
2019-03-09T13:10:23.612Z,9.70
2019-03-09T13:12:54.161Z,9.70
2019-03-09T13:15:24.942Z,9.70
2019-03-09T13:17:56.117Z,9.70
2019-03-09T13:20:26.815Z,9.70
2019-03-09T13:22:57.851Z,9.70
2019-03-09T13:25:28.433Z,9.60
2019-03-09T13:27:59.365Z,9.50
2019-03-09T13:30:30.638Z,9.50
2019-03-09T13:33:01.323Z,9.40
2019-03-09T13:35:32.488Z,9.20
2019-03-09T13:38:03.080Z,9.20
2019-03-09T13:40:33.797Z,9.20
2019-03-09T13:43:04.478Z,9.20
2019-03-09T13:45:35.266Z,9.30
2019-03-09T13:48:05.833Z,9.30
2019-03-09T13:50:37.269Z,9.30
2019-03-09T13:53:07.845Z,9.30
2019-03-09T13:55:39.851Z,9.40
2019-03-09T13:58:10.827Z,9.50
2019-03-09T14:00:41.626Z,9.50
2019-03-09T14:03:12.479Z,9.50
2019-03-09T14:05:43.196Z,9.50
2019-03-09T14:08:13.961Z,9.40
2019-03-09T14:10:44.623Z,9.30
2019-03-09T14:13:15.611Z,9.20
2019-03-09T14:15:46.298Z,9.20
2019-03-09T14:18:16.859Z,9.10
2019-03-09T14:20:48.514Z,9.10
2019-03-09T14:23:19.146Z,9.10
2019-03-09T14:25:49.730Z,9.10
2019-03-09T14:28:20.418Z,9.50
2019-03-09T14:30:51.015Z,9.60
2019-03-09T14:33:21.758Z,9.70
2019-03-09T14:35:52.342Z,9.90
2019-03-09T14:38:23.375Z,9.70
2019-03-09T14:40:54.053Z,10.50
2019-03-09T14:43:24.783Z,10.80
2019-03-09T14:45:56.053Z,10.90
2019-03-09T14:48:26.648Z,10.80
2019-03-09T14:50:57.256Z,10.60
2019-03-09T14:53:28.104Z,10.70
2019-03-09T14:55:58.721Z,10.30
2019-03-09T14:58:29.387Z,10.10
2019-03-09T15:01:00.469Z,10.20
2019-03-09T15:03:31.162Z,9.80
2019-03-09T15:06:02.060Z,9.80
2019-03-09T15:08:32.753Z,9.80
2019-03-09T15:11:03.349Z,9.60
2019-03-09T15:13:34.861Z,9.50
2019-03-09T15:16:05.438Z,9.50
2019-03-09T15:18:36.842Z,9.50
2019-03-09T15:21:07.707Z,9.50
2019-03-09T15:23:38.457Z,9.40
2019-03-09T15:26:09.237Z,9.30
2019-03-09T15:28:40.217Z,9.20
2019-03-09T15:31:10.959Z,9.20
2019-03-09T15:33:41.851Z,9.20
2019-03-09T15:36:13.132Z,9.20
2019-03-09T15:38:44.112Z,9.20
2019-03-09T15:41:14.817Z,9.20
2019-03-09T15:43:45.794Z,9.30
2019-03-09T15:46:16.390Z,9.40
2019-03-09T15:48:47.319Z,9.50
2019-03-09T15:51:18.720Z,9.40
2019-03-09T15:53:49.680Z,9.30
2019-03-09T15:56:20.692Z,9.30
2019-03-09T15:58:51.706Z,9.10
2019-03-09T16:01:22.482Z,8.70
2019-03-09T16:03:53.352Z,8.80
2019-03-09T16:06:24.509Z,8.60
2019-03-09T16:08:55.390Z,8.70
2019-03-09T16:11:26.423Z,8.80
2019-03-09T16:13:57.043Z,8.80
2019-03-09T16:16:27.777Z,8.90
2019-03-09T16:18:58.404Z,8.90
2019-03-09T16:21:29.072Z,8.90
2019-03-09T16:24:00.165Z,8.90
2019-03-09T16:26:30.798Z,9.00
2019-03-09T16:29:01.480Z,9.00
2019-03-09T16:31:32.091Z,9.10
2019-03-09T16:34:02.816Z,9.20
2019-03-09T16:36:38.070Z,9.20
2019-03-09T16:39:09.379Z,9.30
2019-03-09T16:41:40.097Z,9.30
2019-03-09T16:44:11.051Z,9.50
2019-03-09T16:46:41.608Z,9.70
2019-03-09T16:49:12.218Z,9.70
2019-03-09T16:51:42.897Z,9.70
2019-03-09T16:54:13.630Z,9.80
2019-03-09T16:56:44.211Z,9.80
2019-03-09T16:59:14.837Z,9.80
2019-03-09T17:01:45.427Z,9.80
2019-03-09T17:04:16.440Z,9.80
2019-03-09T17:06:47.346Z,9.90
2019-03-09T17:09:18.079Z,9.90
2019-03-09T17:11:48.670Z,10.00
2019-03-09T17:14:19.344Z,10.00
2019-03-09T17:16:49.921Z,10.10
2019-03-09T17:19:21.166Z,10.20
2019-03-09T17:21:51.762Z,10.20
2019-03-09T17:24:22.473Z,10.20
2019-03-09T17:26:53.205Z,10.10
2019-03-09T17:29:23.786Z,10.20
2019-03-09T17:31:54.489Z,10.20
2019-03-09T17:34:25.386Z,10.20
2019-03-09T17:36:56.164Z,10.20
2019-03-09T17:39:26.868Z,10.20
2019-03-09T17:41:57.441Z,10.20
2019-03-09T17:44:28.126Z,10.20
2019-03-09T17:46:58.703Z,10.20
2019-03-09T17:49:29.491Z,10.20
2019-03-09T17:52:00.104Z,10.20
2019-03-09T17:54:31.093Z,10.20
2019-03-09T17:57:01.703Z,10.20
2019-03-09T17:59:32.278Z,10.20
2019-03-09T18:02:02.867Z,10.20
2019-03-09T18:04:33.448Z,10.20
2019-03-09T18:07:04.432Z,10.20
2019-03-09T18:09:35.017Z,10.20
2019-03-09T18:12:05.730Z,10.20
2019-03-09T18:14:36.270Z,10.30
2019-03-09T18:17:07.167Z,10.30
2019-03-09T18:19:37.756Z,10.30
2019-03-09T18:22:08.473Z,10.30
2019-03-09T18:24:39.049Z,10.30
2019-03-09T18:27:09.627Z,10.30
2019-03-09T18:29:40.278Z,10.40
2019-03-09T18:32:10.971Z,10.30
2019-03-09T18:34:41.560Z,10.30
2019-03-09T18:37:12.322Z,10.40
2019-03-09T18:39:42.890Z,10.30
2019-03-09T18:42:13.670Z,10.30
2019-03-09T18:44:44.235Z,10.40
2019-03-09T18:47:15.278Z,10.30
2019-03-09T18:49:45.873Z,10.40
2019-03-09T18:52:16.613Z,10.30
2019-03-09T18:54:47.218Z,10.30
2019-03-09T18:57:17.871Z,10.30
2019-03-09T18:59:48.639Z,10.30
2019-03-09T19:02:19.343Z,10.30
2019-03-09T19:04:50.214Z,10.30
2019-03-09T19:07:21.463Z,10.40
2019-03-09T19:09:52.808Z,10.30
2019-03-09T19:12:23.388Z,10.50
2019-03-09T19:14:54.422Z,10.50
2019-03-09T19:17:25.165Z,10.50
2019-03-09T19:19:56.800Z,10.40
2019-03-09T19:22:27.704Z,10.40
2019-03-09T19:24:58.280Z,10.40
2019-03-09T19:27:29.609Z,10.40
2019-03-09T19:30:00.559Z,10.30
2019-03-09T19:32:31.677Z,10.30
2019-03-09T19:35:02.283Z,10.30
2019-03-09T19:37:33.661Z,10.30
2019-03-09T19:40:05.028Z,10.30
2019-03-09T19:42:37.205Z,10.20
2019-03-09T19:45:09.454Z,10.30
2019-03-09T19:47:40.048Z,10.20
2019-03-09T19:50:14.179Z,10.20
2019-03-09T19:52:45.237Z,10.20
2019-03-09T19:55:15.982Z,10.10
2019-03-09T19:57:46.689Z,9.80
2019-03-09T20:00:17.443Z,9.00
2019-03-09T20:02:48.336Z,8.70
2019-03-09T20:05:19.221Z,8.30
2019-03-09T20:07:49.791Z,8.00
2019-03-09T20:10:20.630Z,7.80
2019-03-09T20:12:51.323Z,7.70
2019-03-09T20:15:22.595Z,7.60
2019-03-09T20:17:53.539Z,7.50
2019-03-09T20:20:24.348Z,7.50
2019-03-09T20:22:54.959Z,7.50
2019-03-09T20:25:28.381Z,7.50
2019-03-09T20:27:58.436Z,7.50
2019-03-09T20:30:29.129Z,7.50
2019-03-09T20:32:59.906Z,7.40
2019-03-09T20:35:30.754Z,7.40
2019-03-09T20:38:01.999Z,7.30
2019-03-09T20:40:33.250Z,7.30
2019-03-09T20:43:03.827Z,7.30
2019-03-09T20:45:34.876Z,7.20
2019-03-09T20:48:05.917Z,7.20
2019-03-09T20:50:36.997Z,7.20
2019-03-09T20:53:07.571Z,7.10
2019-03-09T20:55:38.328Z,7.10
2019-03-09T20:58:09.203Z,7.10
2019-03-09T21:00:40.222Z,7.10
2019-03-09T21:03:10.950Z,7.10
2019-03-09T21:05:42.390Z,7.10
2019-03-09T21:08:13.255Z,7.10
2019-03-09T21:10:44.006Z,7.10
2019-03-09T21:13:15.953Z,7.10
2019-03-09T21:15:47.149Z,7.10
2019-03-09T21:18:18.215Z,7.00
2019-03-09T21:20:48.889Z,6.90
2019-03-09T21:23:19.739Z,6.90
2019-03-09T21:25:51.181Z,6.90
2019-03-09T21:28:22.061Z,6.90
2019-03-09T21:30:52.834Z,6.90
2019-03-09T21:33:24.065Z,6.90
2019-03-09T21:35:54.984Z,6.90
2019-03-09T21:38:26.100Z,6.90
2019-03-09T21:40:56.920Z,6.90
2019-03-09T21:43:28.170Z,6.80
2019-03-09T21:45:58.975Z,6.90
2019-03-09T21:48:30.000Z,6.90
2019-03-09T21:51:01.477Z,6.90
2019-03-09T21:53:32.548Z,6.90
2019-03-09T21:56:03.327Z,6.90
2019-03-09T21:58:34.394Z,6.90
2019-03-09T22:01:05.111Z,6.90
2019-03-09T22:03:36.243Z,6.90
2019-03-09T22:06:06.970Z,7.00
2019-03-09T22:08:38.390Z,7.00
2019-03-09T22:11:09.308Z,7.20
2019-03-09T22:13:40.033Z,7.30
2019-03-09T22:16:10.796Z,7.40
2019-03-09T22:18:41.606Z,7.50
2019-03-09T22:21:12.765Z,7.60
2019-03-09T22:23:44.338Z,7.80
2019-03-09T22:26:15.259Z,8.00
2019-03-09T22:28:46.400Z,8.20
2019-03-09T22:31:17.116Z,8.30
2019-03-09T22:33:48.009Z,8.30
2019-03-09T22:36:19.262Z,8.60
2019-03-09T22:38:50.057Z,8.90
2019-03-09T22:41:20.823Z,9.10
2019-03-09T22:43:51.940Z,9.10
2019-03-09T22:46:23.598Z,9.30
2019-03-09T22:48:54.389Z,9.30
2019-03-09T22:51:24.999Z,9.40
2019-03-09T22:53:55.899Z,9.40
2019-03-09T22:56:26.616Z,9.40
2019-03-09T22:58:57.449Z,9.40
2019-03-09T23:01:29.088Z,9.50
2019-03-09T23:03:59.955Z,9.60
2019-03-09T23:06:31.243Z,9.50
2019-03-09T23:09:01.950Z,9.50
2019-03-09T23:11:32.598Z,9.50
2019-03-09T23:14:03.309Z,9.60
2019-03-09T23:16:33.908Z,9.60
2019-03-09T23:19:04.598Z,9.60
2019-03-09T23:21:35.171Z,9.60
2019-03-09T23:24:05.836Z,9.60
2019-03-09T23:26:36.415Z,9.70
2019-03-09T23:29:07.899Z,9.60
2019-03-09T23:31:38.951Z,9.60
2019-03-09T23:34:09.839Z,9.60
2019-03-09T23:36:40.404Z,9.50
2019-03-09T23:39:11.619Z,9.50
2019-03-09T23:41:42.565Z,9.60
2019-03-09T23:44:13.246Z,9.60
2019-03-09T23:46:43.815Z,9.60
2019-03-09T23:49:14.510Z,9.70
2019-03-09T23:51:45.368Z,9.60
2019-03-09T23:54:16.095Z,9.60
2019-03-09T23:56:46.722Z,9.60
2019-03-09T23:59:17.453Z,9.60
